sensor_id;sensor_type;location;lat;lon;timestamp;temperature;humidity
546;DHT22;259;53.304;9.816;2023-09-18T00:00:50;20.30;99.90
546;DHT22;259;53.304;9.816;2023-09-18T00:03:17;20.30;99.90
546;DHT22;259;53.304;9.816;2023-09-18T00:05:44;20.30;99.90
546;DHT22;259;53.304;9.816;2023-09-18T00:08:10;20.30;99.90
546;DHT22;259;53.304;9.816;2023-09-18T00:10:36;20.30;99.90
546;DHT22;259;53.304;9.816;2023-09-18T00:13:02;20.30;99.90
546;DHT22;259;53.304;9.816;2023-09-18T00:15:28;20.30;99.90
546;DHT22;259;53.304;9.816;2023-09-18T00:17:53;20.30;99.90
546;DHT22;259;53.304;9.816;2023-09-18T00:20:19;20.30;99.90
546;DHT22;259;53.304;9.816;2023-09-18T00:22:45;20.30;99.90
546;DHT22;259;53.304;9.816;2023-09-18T00:25:12;20.30;99.90
546;DHT22;259;53.304;9.816;2023-09-18T00:27:38;20.30;99.90
546;DHT22;259;53.304;9.816;2023-09-18T00:30:04;20.30;99.90
546;DHT22;259;53.304;9.816;2023-09-18T00:32:31;20.30;99.90
546;DHT22;259;53.304;9.816;2023-09-18T00:34:57;20.30;99.90
546;DHT22;259;53.304;9.816;2023-09-18T00:37:23;20.30;99.90
546;DHT22;259;53.304;9.816;2023-09-18T00:39:50;20.30;99.90
546;DHT22;259;53.304;9.816;2023-09-18T00:42:15;20.30;99.90
546;DHT22;259;53.304;9.816;2023-09-18T00:44:43;20.20;99.90
546;DHT22;259;53.304;9.816;2023-09-18T00:47:10;20.20;99.90
546;DHT22;259;53.304;9.816;2023-09-18T00:49:39;20.20;99.90
546;DHT22;259;53.304;9.816;2023-09-18T00:52:07;20.20;99.90
546;DHT22;259;53.304;9.816;2023-09-18T00:54:34;20.20;99.90
546;DHT22;259;53.304;9.816;2023-09-18T00:57:01;20.20;99.90
546;DHT22;259;53.304;9.816;2023-09-18T00:59:27;20.20;99.90
546;DHT22;259;53.304;9.816;2023-09-18T01:01:52;20.20;99.90
546;DHT22;259;53.304;9.816;2023-09-18T01:04:19;20.20;99.90
546;DHT22;259;53.304;9.816;2023-09-18T01:06:45;20.20;99.90
546;DHT22;259;53.304;9.816;2023-09-18T01:09:11;20.20;99.90
546;DHT22;259;53.304;9.816;2023-09-18T01:14:40;20.10;99.90
546;DHT22;259;53.304;9.816;2023-09-18T01:17:10;20.10;99.90
546;DHT22;259;53.304;9.816;2023-09-18T01:19:46;20.10;99.90
546;DHT22;259;53.304;9.816;2023-09-18T01:22:18;20.10;99.90
546;DHT22;259;53.304;9.816;2023-09-18T01:24:45;20.10;99.90
546;DHT22;259;53.304;9.816;2023-09-18T01:27:16;20.10;99.90
546;DHT22;259;53.304;9.816;2023-09-18T01:29:46;20.10;99.90
546;DHT22;259;53.304;9.816;2023-09-18T01:32:13;20.10;99.90
546;DHT22;259;53.304;9.816;2023-09-18T01:34:42;20.10;99.90
546;DHT22;259;53.304;9.816;2023-09-18T01:37:11;20.10;99.90
546;DHT22;259;53.304;9.816;2023-09-18T01:39:39;20.10;99.90
546;DHT22;259;53.304;9.816;2023-09-18T01:42:06;20.10;99.90
546;DHT22;259;53.304;9.816;2023-09-18T01:44:36;20.10;99.90
546;DHT22;259;53.304;9.816;2023-09-18T01:47:07;20.10;99.90
546;DHT22;259;53.304;9.816;2023-09-18T01:49:36;20.10;99.90
546;DHT22;259;53.304;9.816;2023-09-18T01:52:04;20.10;99.90
546;DHT22;259;53.304;9.816;2023-09-18T01:54:31;20.10;99.90
546;DHT22;259;53.304;9.816;2023-09-18T01:56:57;20.10;99.90
546;DHT22;259;53.304;9.816;2023-09-18T01:59:24;20.10;99.90
546;DHT22;259;53.304;9.816;2023-09-18T02:01:51;20.10;99.90
546;DHT22;259;53.304;9.816;2023-09-18T02:04:17;20.10;99.90
546;DHT22;259;53.304;9.816;2023-09-18T02:06:43;20.10;99.90
546;DHT22;259;53.304;9.816;2023-09-18T02:09:10;20.10;99.90
546;DHT22;259;53.304;9.816;2023-09-18T02:11:41;20.00;99.90
546;DHT22;259;53.304;9.816;2023-09-18T02:14:08;20.00;99.90
546;DHT22;259;53.304;9.816;2023-09-18T02:16:35;20.00;99.90
546;DHT22;259;53.304;9.816;2023-09-18T02:19:03;20.00;99.90
546;DHT22;259;53.304;9.816;2023-09-18T02:21:29;20.00;99.90
546;DHT22;259;53.304;9.816;2023-09-18T02:23:55;20.00;99.90
546;DHT22;259;53.304;9.816;2023-09-18T02:26:22;20.00;99.90
546;DHT22;259;53.304;9.816;2023-09-18T02:28:49;20.00;99.90
546;DHT22;259;53.304;9.816;2023-09-18T02:31:16;20.00;99.90
546;DHT22;259;53.304;9.816;2023-09-18T02:33:43;20.00;99.90
546;DHT22;259;53.304;9.816;2023-09-18T02:36:08;20.00;99.90
546;DHT22;259;53.304;9.816;2023-09-18T02:38:34;20.00;99.90
546;DHT22;259;53.304;9.816;2023-09-18T02:41:00;20.00;99.90
546;DHT22;259;53.304;9.816;2023-09-18T02:43:26;20.00;99.90
546;DHT22;259;53.304;9.816;2023-09-18T02:45:52;20.00;99.90
546;DHT22;259;53.304;9.816;2023-09-18T02:48:18;20.00;99.90
546;DHT22;259;53.304;9.816;2023-09-18T02:50:45;19.90;99.90
546;DHT22;259;53.304;9.816;2023-09-18T02:53:19;19.90;99.90
546;DHT22;259;53.304;9.816;2023-09-18T02:55:48;19.90;99.90
546;DHT22;259;53.304;9.816;2023-09-18T02:58:14;20.00;99.90
546;DHT22;259;53.304;9.816;2023-09-18T03:00:45;19.90;99.90
546;DHT22;259;53.304;9.816;2023-09-18T03:03:13;19.90;99.90
546;DHT22;259;53.304;9.816;2023-09-18T03:05:39;19.90;99.90
546;DHT22;259;53.304;9.816;2023-09-18T03:08:06;19.90;99.90
546;DHT22;259;53.304;9.816;2023-09-18T03:10:36;19.90;99.90
546;DHT22;259;53.304;9.816;2023-09-18T03:13:03;19.90;99.90
546;DHT22;259;53.304;9.816;2023-09-18T03:15:30;20.00;99.90
546;DHT22;259;53.304;9.816;2023-09-18T03:17:56;19.90;99.90
546;DHT22;259;53.304;9.816;2023-09-18T03:20:24;19.90;99.90
546;DHT22;259;53.304;9.816;2023-09-18T03:22:51;19.90;99.90
546;DHT22;259;53.304;9.816;2023-09-18T03:25:17;19.90;99.90
546;DHT22;259;53.304;9.816;2023-09-18T03:27:43;19.90;99.90
546;DHT22;259;53.304;9.816;2023-09-18T03:30:08;19.90;99.90
546;DHT22;259;53.304;9.816;2023-09-18T03:32:38;19.90;99.90
546;DHT22;259;53.304;9.816;2023-09-18T03:35:04;19.90;99.90
546;DHT22;259;53.304;9.816;2023-09-18T03:37:30;19.90;99.90
546;DHT22;259;53.304;9.816;2023-09-18T03:39:56;19.90;99.90
546;DHT22;259;53.304;9.816;2023-09-18T03:42:21;19.90;99.90
546;DHT22;259;53.304;9.816;2023-09-18T03:44:47;19.80;99.90
546;DHT22;259;53.304;9.816;2023-09-18T03:47:13;19.80;99.90
546;DHT22;259;53.304;9.816;2023-09-18T03:49:38;19.80;99.90
546;DHT22;259;53.304;9.816;2023-09-18T03:52:04;19.80;99.90
546;DHT22;259;53.304;9.816;2023-09-18T03:54:30;19.80;99.90
546;DHT22;259;53.304;9.816;2023-09-18T03:56:56;19.80;99.90
546;DHT22;259;53.304;9.816;2023-09-18T03:59:22;19.80;99.90
546;DHT22;259;53.304;9.816;2023-09-18T04:01:47;19.80;99.90
546;DHT22;259;53.304;9.816;2023-09-18T04:04:13;19.80;99.90
546;DHT22;259;53.304;9.816;2023-09-18T04:06:43;19.80;99.90
546;DHT22;259;53.304;9.816;2023-09-18T04:09:10;19.70;99.90
546;DHT22;259;53.304;9.816;2023-09-18T04:11:36;19.70;99.90
546;DHT22;259;53.304;9.816;2023-09-18T04:14:01;19.70;99.90
546;DHT22;259;53.304;9.816;2023-09-18T04:16:29;19.70;99.90
546;DHT22;259;53.304;9.816;2023-09-18T04:18:56;19.70;99.90
546;DHT22;259;53.304;9.816;2023-09-18T04:21:22;19.70;99.90
546;DHT22;259;53.304;9.816;2023-09-18T04:23:49;19.70;99.90
546;DHT22;259;53.304;9.816;2023-09-18T04:26:21;19.70;99.90
546;DHT22;259;53.304;9.816;2023-09-18T04:28:47;19.70;99.90
546;DHT22;259;53.304;9.816;2023-09-18T04:31:13;19.70;99.90
546;DHT22;259;53.304;9.816;2023-09-18T04:33:38;19.70;99.90
546;DHT22;259;53.304;9.816;2023-09-18T04:36:04;19.70;99.90
546;DHT22;259;53.304;9.816;2023-09-18T04:38:30;19.70;99.90
546;DHT22;259;53.304;9.816;2023-09-18T04:41:00;19.70;99.90
546;DHT22;259;53.304;9.816;2023-09-18T04:43:26;19.70;99.90
546;DHT22;259;53.304;9.816;2023-09-18T04:45:52;19.70;99.90
546;DHT22;259;53.304;9.816;2023-09-18T04:48:17;19.70;99.90
546;DHT22;259;53.304;9.816;2023-09-18T04:50:43;19.70;99.90
546;DHT22;259;53.304;9.816;2023-09-18T04:53:09;19.70;99.90
546;DHT22;259;53.304;9.816;2023-09-18T04:55:35;19.70;99.90
546;DHT22;259;53.304;9.816;2023-09-18T04:58:01;19.70;99.90
546;DHT22;259;53.304;9.816;2023-09-18T05:00:27;19.70;99.90
546;DHT22;259;53.304;9.816;2023-09-18T05:02:54;19.70;99.90
546;DHT22;259;53.304;9.816;2023-09-18T05:05:20;19.70;99.90
546;DHT22;259;53.304;9.816;2023-09-18T05:07:46;19.70;99.90
546;DHT22;259;53.304;9.816;2023-09-18T05:10:12;19.70;99.90
546;DHT22;259;53.304;9.816;2023-09-18T05:12:39;19.70;99.90
546;DHT22;259;53.304;9.816;2023-09-18T05:15:06;19.60;99.90
546;DHT22;259;53.304;9.816;2023-09-18T05:17:45;19.60;99.90
546;DHT22;259;53.304;9.816;2023-09-18T05:20:13;19.60;99.90
546;DHT22;259;53.304;9.816;2023-09-18T05:22:42;19.60;99.90
546;DHT22;259;53.304;9.816;2023-09-18T05:25:09;19.60;99.90
546;DHT22;259;53.304;9.816;2023-09-18T05:27:36;19.60;99.90
546;DHT22;259;53.304;9.816;2023-09-18T05:30:11;19.60;99.90
546;DHT22;259;53.304;9.816;2023-09-18T05:32:42;19.60;99.90
546;DHT22;259;53.304;9.816;2023-09-18T05:35:09;19.60;99.90
546;DHT22;259;53.304;9.816;2023-09-18T05:37:38;19.50;99.90
546;DHT22;259;53.304;9.816;2023-09-18T05:40:06;19.60;99.90
546;DHT22;259;53.304;9.816;2023-09-18T05:42:35;19.50;99.90
546;DHT22;259;53.304;9.816;2023-09-18T05:45:02;19.60;99.90
546;DHT22;259;53.304;9.816;2023-09-18T05:47:30;19.50;99.90
546;DHT22;259;53.304;9.816;2023-09-18T05:49:57;19.50;99.90
546;DHT22;259;53.304;9.816;2023-09-18T05:52:23;19.50;99.90
546;DHT22;259;53.304;9.816;2023-09-18T05:54:50;19.50;99.90
546;DHT22;259;53.304;9.816;2023-09-18T05:57:15;19.50;99.90
546;DHT22;259;53.304;9.816;2023-09-18T05:59:42;19.50;99.90
546;DHT22;259;53.304;9.816;2023-09-18T06:02:10;19.50;99.90
546;DHT22;259;53.304;9.816;2023-09-18T06:04:36;19.50;99.90
546;DHT22;259;53.304;9.816;2023-09-18T06:07:06;19.50;99.90
546;DHT22;259;53.304;9.816;2023-09-18T06:09:31;19.50;99.90
546;DHT22;259;53.304;9.816;2023-09-18T06:11:57;19.60;99.90
546;DHT22;259;53.304;9.816;2023-09-18T06:14:25;19.60;99.90
546;DHT22;259;53.304;9.816;2023-09-18T06:16:51;19.60;99.90
546;DHT22;259;53.304;9.816;2023-09-18T06:19:17;19.60;99.90
546;DHT22;259;53.304;9.816;2023-09-18T06:21:43;19.60;99.90
546;DHT22;259;53.304;9.816;2023-09-18T06:24:09;19.60;99.90
546;DHT22;259;53.304;9.816;2023-09-18T06:26:35;19.60;99.90
546;DHT22;259;53.304;9.816;2023-09-18T06:29:01;19.60;99.90
546;DHT22;259;53.304;9.816;2023-09-18T06:31:28;19.50;99.90
546;DHT22;259;53.304;9.816;2023-09-18T06:33:53;19.50;99.90
546;DHT22;259;53.304;9.816;2023-09-18T06:36:19;19.50;99.90
546;DHT22;259;53.304;9.816;2023-09-18T06:38:45;19.50;99.90
546;DHT22;259;53.304;9.816;2023-09-18T06:41:11;19.50;99.90
546;DHT22;259;53.304;9.816;2023-09-18T06:43:37;19.50;99.90
546;DHT22;259;53.304;9.816;2023-09-18T06:46:03;19.50;99.90
546;DHT22;259;53.304;9.816;2023-09-18T06:48:29;19.50;99.90
546;DHT22;259;53.304;9.816;2023-09-18T06:50:58;19.50;99.90
546;DHT22;259;53.304;9.816;2023-09-18T06:53:26;19.50;99.90
546;DHT22;259;53.304;9.816;2023-09-18T06:55:53;19.50;99.90
546;DHT22;259;53.304;9.816;2023-09-18T06:58:19;19.50;99.90
546;DHT22;259;53.304;9.816;2023-09-18T07:00:45;19.50;99.90
546;DHT22;259;53.304;9.816;2023-09-18T07:03:10;19.50;99.90
546;DHT22;259;53.304;9.816;2023-09-18T07:05:37;19.50;99.90
546;DHT22;259;53.304;9.816;2023-09-18T07:08:03;19.50;99.90
546;DHT22;259;53.304;9.816;2023-09-18T07:10:31;19.50;99.90
546;DHT22;259;53.304;9.816;2023-09-18T07:12:58;19.50;99.90
546;DHT22;259;53.304;9.816;2023-09-18T07:15:24;19.50;99.90
546;DHT22;259;53.304;9.816;2023-09-18T07:17:49;19.50;99.90
546;DHT22;259;53.304;9.816;2023-09-18T07:20:15;19.50;99.90
546;DHT22;259;53.304;9.816;2023-09-18T07:22:46;19.50;99.90
546;DHT22;259;53.304;9.816;2023-09-18T07:25:13;19.50;99.90
546;DHT22;259;53.304;9.816;2023-09-18T07:27:38;19.50;99.90
546;DHT22;259;53.304;9.816;2023-09-18T07:30:10;19.50;99.90
546;DHT22;259;53.304;9.816;2023-09-18T07:32:36;19.50;99.90
546;DHT22;259;53.304;9.816;2023-09-18T07:35:02;19.50;99.90
546;DHT22;259;53.304;9.816;2023-09-18T07:37:31;19.60;99.90
546;DHT22;259;53.304;9.816;2023-09-18T07:39:57;19.60;99.90
546;DHT22;259;53.304;9.816;2023-09-18T07:42:26;19.60;99.90
546;DHT22;259;53.304;9.816;2023-09-18T07:44:52;19.50;99.90
546;DHT22;259;53.304;9.816;2023-09-18T07:47:19;19.60;99.90
546;DHT22;259;53.304;9.816;2023-09-18T07:49:45;19.60;99.90
546;DHT22;259;53.304;9.816;2023-09-18T07:52:11;19.60;99.90
546;DHT22;259;53.304;9.816;2023-09-18T07:54:37;19.60;99.90
546;DHT22;259;53.304;9.816;2023-09-18T07:57:02;19.60;99.90
546;DHT22;259;53.304;9.816;2023-09-18T07:59:28;19.60;99.90
546;DHT22;259;53.304;9.816;2023-09-18T08:01:54;19.60;99.90
546;DHT22;259;53.304;9.816;2023-09-18T08:04:20;19.60;99.90
546;DHT22;259;53.304;9.816;2023-09-18T08:06:46;19.60;99.90
546;DHT22;259;53.304;9.816;2023-09-18T08:09:13;19.50;99.90
546;DHT22;259;53.304;9.816;2023-09-18T08:11:42;19.50;99.90
546;DHT22;259;53.304;9.816;2023-09-18T08:14:11;19.50;99.90
546;DHT22;259;53.304;9.816;2023-09-18T08:16:40;19.60;99.90
546;DHT22;259;53.304;9.816;2023-09-18T08:19:05;19.60;99.90
546;DHT22;259;53.304;9.816;2023-09-18T08:21:32;19.50;99.90
546;DHT22;259;53.304;9.816;2023-09-18T08:23:58;19.60;99.90
546;DHT22;259;53.304;9.816;2023-09-18T08:26:24;19.60;99.90
546;DHT22;259;53.304;9.816;2023-09-18T08:28:52;19.60;99.90
546;DHT22;259;53.304;9.816;2023-09-18T08:31:25;19.60;99.90
546;DHT22;259;53.304;9.816;2023-09-18T08:33:52;19.60;99.90
546;DHT22;259;53.304;9.816;2023-09-18T08:36:18;19.60;99.90
546;DHT22;259;53.304;9.816;2023-09-18T08:38:44;19.60;99.90
546;DHT22;259;53.304;9.816;2023-09-18T08:41:12;19.60;99.90
546;DHT22;259;53.304;9.816;2023-09-18T08:43:42;19.50;99.90
546;DHT22;259;53.304;9.816;2023-09-18T08:46:08;19.60;99.90
546;DHT22;259;53.304;9.816;2023-09-18T08:48:35;19.60;99.90
546;DHT22;259;53.304;9.816;2023-09-18T08:51:03;19.60;99.90
546;DHT22;259;53.304;9.816;2023-09-18T08:53:34;19.60;99.90
546;DHT22;259;53.304;9.816;2023-09-18T08:56:02;19.60;99.90
546;DHT22;259;53.304;9.816;2023-09-18T08:58:37;19.50;99.90
546;DHT22;259;53.304;9.816;2023-09-18T09:01:05;19.60;99.90
546;DHT22;259;53.304;9.816;2023-09-18T09:03:37;19.60;99.90
546;DHT22;259;53.304;9.816;2023-09-18T09:06:04;19.60;99.90
546;DHT22;259;53.304;9.816;2023-09-18T09:08:31;19.60;99.90
546;DHT22;259;53.304;9.816;2023-09-18T09:10:57;19.60;99.90
546;DHT22;259;53.304;9.816;2023-09-18T09:13:26;19.60;99.90
546;DHT22;259;53.304;9.816;2023-09-18T09:15:57;19.70;99.90
546;DHT22;259;53.304;9.816;2023-09-18T09:18:26;19.70;99.90
546;DHT22;259;53.304;9.816;2023-09-18T09:23:23;19.70;99.90
546;DHT22;259;53.304;9.816;2023-09-18T09:25:49;19.80;99.90
546;DHT22;259;53.304;9.816;2023-09-18T09:28:15;19.70;99.90
546;DHT22;259;53.304;9.816;2023-09-18T09:30:41;19.80;99.90
546;DHT22;259;53.304;9.816;2023-09-18T09:33:12;19.80;99.90
546;DHT22;259;53.304;9.816;2023-09-18T09:35:38;19.80;99.90
546;DHT22;259;53.304;9.816;2023-09-18T09:38:09;19.80;99.90
546;DHT22;259;53.304;9.816;2023-09-18T09:40:41;19.80;99.90
546;DHT22;259;53.304;9.816;2023-09-18T09:43:10;19.80;99.90
546;DHT22;259;53.304;9.816;2023-09-18T09:45:36;19.80;99.90
546;DHT22;259;53.304;9.816;2023-09-18T09:48:04;19.80;99.90
546;DHT22;259;53.304;9.816;2023-09-18T09:50:31;19.80;99.90
546;DHT22;259;53.304;9.816;2023-09-18T09:52:57;19.80;99.90
546;DHT22;259;53.304;9.816;2023-09-18T09:55:31;19.80;99.90
546;DHT22;259;53.304;9.816;2023-09-18T09:58:01;19.80;99.90
546;DHT22;259;53.304;9.816;2023-09-18T10:00:46;19.80;99.90
546;DHT22;259;53.304;9.816;2023-09-18T10:03:20;19.80;99.90
546;DHT22;259;53.304;9.816;2023-09-18T10:05:47;19.90;99.90
546;DHT22;259;53.304;9.816;2023-09-18T10:08:22;19.90;99.90
546;DHT22;259;53.304;9.816;2023-09-18T10:10:51;20.00;99.90
546;DHT22;259;53.304;9.816;2023-09-18T10:13:32;20.00;99.90
546;DHT22;259;53.304;9.816;2023-09-18T10:16:00;20.00;99.90
546;DHT22;259;53.304;9.816;2023-09-18T10:24:41;20.20;99.90
546;DHT22;259;53.304;9.816;2023-09-18T10:27:12;20.20;99.90
546;DHT22;259;53.304;9.816;2023-09-18T10:29:41;20.30;99.90
546;DHT22;259;53.304;9.816;2023-09-18T10:32:07;20.30;99.90
546;DHT22;259;53.304;9.816;2023-09-18T10:34:34;20.30;99.90
546;DHT22;259;53.304;9.816;2023-09-18T10:37:02;20.40;99.90
546;DHT22;259;53.304;9.816;2023-09-18T10:39:35;20.50;99.90
546;DHT22;259;53.304;9.816;2023-09-18T10:42:03;20.50;99.90
546;DHT22;259;53.304;9.816;2023-09-18T10:44:30;20.50;99.90
546;DHT22;259;53.304;9.816;2023-09-18T10:47:00;20.60;99.90
546;DHT22;259;53.304;9.816;2023-09-18T10:49:28;20.60;99.90
546;DHT22;259;53.304;9.816;2023-09-18T10:51:54;20.60;99.90
546;DHT22;259;53.304;9.816;2023-09-18T10:54:23;20.70;99.90
546;DHT22;259;53.304;9.816;2023-09-18T10:56:50;20.80;99.90
546;DHT22;259;53.304;9.816;2023-09-18T10:59:16;20.90;99.90
546;DHT22;259;53.304;9.816;2023-09-18T11:01:43;21.00;99.90
546;DHT22;259;53.304;9.816;2023-09-18T11:04:09;21.00;99.90
546;DHT22;259;53.304;9.816;2023-09-18T11:09:21;20.90;99.90
546;DHT22;259;53.304;9.816;2023-09-18T11:14:49;20.80;99.90
546;DHT22;259;53.304;9.816;2023-09-18T11:22:40;20.70;99.90
546;DHT22;259;53.304;9.816;2023-09-18T11:28:24;20.70;99.90
546;DHT22;259;53.304;9.816;2023-09-18T11:30:52;20.70;99.90
546;DHT22;259;53.304;9.816;2023-09-18T11:33:37;20.70;99.90
546;DHT22;259;53.304;9.816;2023-09-18T11:36:06;20.70;99.90
546;DHT22;259;53.304;9.816;2023-09-18T11:38:55;20.70;99.90
546;DHT22;259;53.304;9.816;2023-09-18T11:41:25;20.70;99.90
546;DHT22;259;53.304;9.816;2023-09-18T11:43:54;20.70;99.90
546;DHT22;259;53.304;9.816;2023-09-18T11:46:48;20.70;99.90
546;DHT22;259;53.304;9.816;2023-09-18T11:49:20;20.70;99.90
546;DHT22;259;53.304;9.816;2023-09-18T11:51:52;20.70;99.90
546;DHT22;259;53.304;9.816;2023-09-18T11:54:18;20.70;99.90
546;DHT22;259;53.304;9.816;2023-09-18T11:56:44;20.70;99.90
546;DHT22;259;53.304;9.816;2023-09-18T11:59:10;20.70;99.90
546;DHT22;259;53.304;9.816;2023-09-18T12:01:37;20.70;99.90
546;DHT22;259;53.304;9.816;2023-09-18T12:04:06;20.70;99.90
546;DHT22;259;53.304;9.816;2023-09-18T12:06:39;20.80;99.90
546;DHT22;259;53.304;9.816;2023-09-18T12:09:06;20.80;99.90
546;DHT22;259;53.304;9.816;2023-09-18T12:11:33;20.80;99.90
546;DHT22;259;53.304;9.816;2023-09-18T12:14:07;20.80;99.90
546;DHT22;259;53.304;9.816;2023-09-18T12:16:39;20.80;99.90
546;DHT22;259;53.304;9.816;2023-09-18T12:19:05;20.90;99.90
546;DHT22;259;53.304;9.816;2023-09-18T12:21:32;20.90;99.90
546;DHT22;259;53.304;9.816;2023-09-18T12:23:58;20.90;99.90
546;DHT22;259;53.304;9.816;2023-09-18T12:26:25;20.90;99.90
546;DHT22;259;53.304;9.816;2023-09-18T12:28:51;20.90;99.90
546;DHT22;259;53.304;9.816;2023-09-18T12:31:17;20.90;99.90
546;DHT22;259;53.304;9.816;2023-09-18T12:33:43;20.90;99.90
546;DHT22;259;53.304;9.816;2023-09-18T12:36:10;20.90;99.90
546;DHT22;259;53.304;9.816;2023-09-18T12:38:37;20.90;99.90
546;DHT22;259;53.304;9.816;2023-09-18T12:41:04;20.90;99.90
546;DHT22;259;53.304;9.816;2023-09-18T12:43:38;20.90;99.90
546;DHT22;259;53.304;9.816;2023-09-18T12:46:06;20.90;99.90
546;DHT22;259;53.304;9.816;2023-09-18T12:48:32;20.90;99.90
546;DHT22;259;53.304;9.816;2023-09-18T12:51:03;21.00;99.90
546;DHT22;259;53.304;9.816;2023-09-18T12:53:29;21.00;99.90
546;DHT22;259;53.304;9.816;2023-09-18T12:56:12;21.00;99.90
546;DHT22;259;53.304;9.816;2023-09-18T12:58:38;21.00;99.90
546;DHT22;259;53.304;9.816;2023-09-18T13:01:09;21.00;99.90
546;DHT22;259;53.304;9.816;2023-09-18T13:03:44;21.00;99.90
546;DHT22;259;53.304;9.816;2023-09-18T13:06:11;21.00;99.90
546;DHT22;259;53.304;9.816;2023-09-18T13:08:41;21.10;99.90
546;DHT22;259;53.304;9.816;2023-09-18T13:11:08;21.10;99.90
546;DHT22;259;53.304;9.816;2023-09-18T13:13:34;21.10;99.90
546;DHT22;259;53.304;9.816;2023-09-18T13:16:00;21.20;99.90
546;DHT22;259;53.304;9.816;2023-09-18T13:18:26;21.20;99.90
546;DHT22;259;53.304;9.816;2023-09-18T13:20:53;21.20;99.90
546;DHT22;259;53.304;9.816;2023-09-18T13:23:19;21.20;99.90
546;DHT22;259;53.304;9.816;2023-09-18T13:25:45;21.20;99.90
546;DHT22;259;53.304;9.816;2023-09-18T13:28:13;21.20;99.90
546;DHT22;259;53.304;9.816;2023-09-18T13:30:40;21.20;99.90
546;DHT22;259;53.304;9.816;2023-09-18T13:33:11;21.20;99.90
546;DHT22;259;53.304;9.816;2023-09-18T13:35:43;21.20;99.90
546;DHT22;259;53.304;9.816;2023-09-18T13:38:10;21.20;99.90
546;DHT22;259;53.304;9.816;2023-09-18T13:40:40;21.10;99.90
546;DHT22;259;53.304;9.816;2023-09-18T13:43:08;21.20;99.90
546;DHT22;259;53.304;9.816;2023-09-18T13:45:35;21.20;99.90
546;DHT22;259;53.304;9.816;2023-09-18T13:48:04;21.20;99.90
546;DHT22;259;53.304;9.816;2023-09-18T13:50:31;21.20;99.90
546;DHT22;259;53.304;9.816;2023-09-18T13:52:57;21.20;99.90
546;DHT22;259;53.304;9.816;2023-09-18T13:55:24;21.20;99.90
546;DHT22;259;53.304;9.816;2023-09-18T13:57:50;21.20;99.90
546;DHT22;259;53.304;9.816;2023-09-18T14:00:16;21.20;99.90
546;DHT22;259;53.304;9.816;2023-09-18T14:02:42;21.20;99.90
546;DHT22;259;53.304;9.816;2023-09-18T14:05:09;21.20;99.90
546;DHT22;259;53.304;9.816;2023-09-18T14:07:36;21.20;99.90
546;DHT22;259;53.304;9.816;2023-09-18T14:10:06;21.20;99.90
546;DHT22;259;53.304;9.816;2023-09-18T14:12:32;21.20;99.90
546;DHT22;259;53.304;9.816;2023-09-18T14:14:58;21.20;99.90
546;DHT22;259;53.304;9.816;2023-09-18T14:17:25;21.20;99.90
546;DHT22;259;53.304;9.816;2023-09-18T14:19:51;21.20;99.90
546;DHT22;259;53.304;9.816;2023-09-18T14:22:18;21.20;99.90
546;DHT22;259;53.304;9.816;2023-09-18T14:24:44;21.20;99.90
546;DHT22;259;53.304;9.816;2023-09-18T14:27:11;21.30;99.90
546;DHT22;259;53.304;9.816;2023-09-18T14:29:37;21.30;99.90
546;DHT22;259;53.304;9.816;2023-09-18T14:32:03;21.30;99.90
546;DHT22;259;53.304;9.816;2023-09-18T14:34:30;21.30;99.90
546;DHT22;259;53.304;9.816;2023-09-18T14:36:56;21.30;99.90
546;DHT22;259;53.304;9.816;2023-09-18T14:39:22;21.30;99.90
546;DHT22;259;53.304;9.816;2023-09-18T14:41:48;21.40;99.90
546;DHT22;259;53.304;9.816;2023-09-18T14:44:15;21.40;99.90
546;DHT22;259;53.304;9.816;2023-09-18T14:46:40;21.40;99.90
546;DHT22;259;53.304;9.816;2023-09-18T14:49:07;21.40;99.90
546;DHT22;259;53.304;9.816;2023-09-18T14:51:33;21.40;99.90
546;DHT22;259;53.304;9.816;2023-09-18T14:54:00;21.40;99.90
546;DHT22;259;53.304;9.816;2023-09-18T14:56:27;21.40;99.90
546;DHT22;259;53.304;9.816;2023-09-18T14:58:53;21.40;99.90
546;DHT22;259;53.304;9.816;2023-09-18T15:01:21;21.40;99.90
546;DHT22;259;53.304;9.816;2023-09-18T15:03:47;21.40;99.90
546;DHT22;259;53.304;9.816;2023-09-18T15:06:16;21.40;99.90
546;DHT22;259;53.304;9.816;2023-09-18T15:08:43;21.50;99.90
546;DHT22;259;53.304;9.816;2023-09-18T15:11:09;21.50;99.90
546;DHT22;259;53.304;9.816;2023-09-18T15:13:36;21.50;99.90
546;DHT22;259;53.304;9.816;2023-09-18T15:16:02;21.50;99.90
546;DHT22;259;53.304;9.816;2023-09-18T15:18:28;21.60;99.90
546;DHT22;259;53.304;9.816;2023-09-18T15:20:53;21.60;99.90
546;DHT22;259;53.304;9.816;2023-09-18T15:23:26;21.60;99.90
546;DHT22;259;53.304;9.816;2023-09-18T15:25:52;21.60;99.90
546;DHT22;259;53.304;9.816;2023-09-18T15:28:24;21.60;99.90
546;DHT22;259;53.304;9.816;2023-09-18T15:30:52;21.60;99.90
546;DHT22;259;53.304;9.816;2023-09-18T15:33:18;21.60;99.90
546;DHT22;259;53.304;9.816;2023-09-18T15:35:44;21.60;99.90
546;DHT22;259;53.304;9.816;2023-09-18T15:38:10;21.60;99.90
546;DHT22;259;53.304;9.816;2023-09-18T15:40:36;21.50;99.90
546;DHT22;259;53.304;9.816;2023-09-18T15:43:03;21.60;99.90
546;DHT22;259;53.304;9.816;2023-09-18T15:45:29;21.50;99.90
546;DHT22;259;53.304;9.816;2023-09-18T15:47:55;21.60;99.90
546;DHT22;259;53.304;9.816;2023-09-18T15:50:21;21.50;99.90
546;DHT22;259;53.304;9.816;2023-09-18T15:52:47;21.60;99.90
546;DHT22;259;53.304;9.816;2023-09-18T15:55:14;21.60;99.90
546;DHT22;259;53.304;9.816;2023-09-18T15:57:40;21.60;99.90
546;DHT22;259;53.304;9.816;2023-09-18T16:00:08;21.60;99.90
546;DHT22;259;53.304;9.816;2023-09-18T16:02:35;21.60;99.90
546;DHT22;259;53.304;9.816;2023-09-18T16:05:02;21.60;99.90
546;DHT22;259;53.304;9.816;2023-09-18T16:07:35;21.60;99.90
546;DHT22;259;53.304;9.816;2023-09-18T16:10:02;21.60;99.90
546;DHT22;259;53.304;9.816;2023-09-18T16:12:30;21.60;99.90
546;DHT22;259;53.304;9.816;2023-09-18T16:14:59;21.60;99.90
546;DHT22;259;53.304;9.816;2023-09-18T16:17:26;21.60;99.90
546;DHT22;259;53.304;9.816;2023-09-18T16:19:52;21.60;99.90
546;DHT22;259;53.304;9.816;2023-09-18T16:22:19;21.60;99.90
546;DHT22;259;53.304;9.816;2023-09-18T16:24:45;21.60;99.90
546;DHT22;259;53.304;9.816;2023-09-18T16:27:11;21.60;99.90
546;DHT22;259;53.304;9.816;2023-09-18T16:29:39;21.60;99.90
546;DHT22;259;53.304;9.816;2023-09-18T16:32:05;21.60;99.90
546;DHT22;259;53.304;9.816;2023-09-18T16:34:32;21.60;99.90
546;DHT22;259;53.304;9.816;2023-09-18T16:37:01;21.70;99.90
546;DHT22;259;53.304;9.816;2023-09-18T16:39:28;21.70;99.90
546;DHT22;259;53.304;9.816;2023-09-18T16:41:54;21.80;99.90
546;DHT22;259;53.304;9.816;2023-09-18T16:44:20;21.80;99.90
546;DHT22;259;53.304;9.816;2023-09-18T16:46:46;21.80;99.90
546;DHT22;259;53.304;9.816;2023-09-18T16:49:11;21.80;99.90
546;DHT22;259;53.304;9.816;2023-09-18T16:51:40;21.70;99.90
546;DHT22;259;53.304;9.816;2023-09-18T16:54:07;21.70;99.90
546;DHT22;259;53.304;9.816;2023-09-18T16:56:32;21.70;99.90
546;DHT22;259;53.304;9.816;2023-09-18T16:59:01;21.70;99.90
546;DHT22;259;53.304;9.816;2023-09-18T17:01:27;21.70;99.90